Dades meteomassalio
Diari Summary for Juny 25, 2017 Units:  Metric    English   Both
« Previous Day
Next Day »
Diari Semanal Mensual Anual Personalitzat
  Maxima: Minima: Mijana:
Temperatura: 32.5 °C 21.8 °C 26.4 °C
Rosada: 20.3 °C 14.3 °C 16.4 °C
Humitat: 64 % 43 % 55 %
Velocitat del vent: 37.0 km/h 0.0 km/h 8.8 km/h
Racha vent: 37.0 km/h - -
Vent:- - South
Pressio: 1016.8 hPa 1010.4 hPa -
Pluja: 0.0 mm    
Historical Graphs
 
 
Tabular Data for Juny 25, 2017
Time Temperature Dew Point Pressure Wind Wind Speed Wind Gust Humidity Rainfall Rate (Hourly) solar Conditions
00:00 26.3 °C 17.9 °C 1015.1 hPa NW 9.7 km/h 9.7 km/h 60 % 0.0 mm 0.0 W/m2 CLR
00:05 26.4 °C 16.9 °C 1015.5 hPa NW 13.0 km/h 13.0 km/h 56 % 0.0 mm 0.0 W/m2 CLR
00:10 26.6 °C 15.9 °C 1015.5 hPa WNW 13.0 km/h 13.0 km/h 52 % 0.0 mm 0.0 W/m2 CLR
00:15 26.6 °C 15.6 °C 1015.5 hPa WNW 13.0 km/h 13.0 km/h 51 % 0.0 mm 0.0 W/m2 CLR
00:16 26.6 °C 15.6 °C 1015.5 hPa West 13.0 km/h 13.0 km/h 51 % 0.0 mm 0.0 W/m2 CLR
00:21 26.5 °C 15.2 °C 1015.5 hPa NW 24.1 km/h 24.1 km/h 50 % 0.0 mm 0.0 W/m2 CLR
00:26 26.4 °C 14.8 °C 1015.8 hPa West 20.4 km/h 20.4 km/h 49 % 0.0 mm 0.0 W/m2 CLR
00:31 26.3 °C 15.0 °C 1015.8 hPa NW 1.9 km/h   50 % 0.0 mm 0.0 W/m2 CLR
00:36 26.2 °C 14.9 °C 1015.8 hPa NW 6.4 km/h 6.4 km/h 50 % 0.0 mm 0.0 W/m2 CLR
00:41 26.0 °C 14.8 °C 1015.8 hPa WSW 13.0 km/h 13.0 km/h 50 % 0.0 mm 0.0 W/m2 CLR
00:46 25.8 °C 14.6 °C 1015.8 hPa WSW 7.4 km/h 7.4 km/h 50 % 0.0 mm 0.0 W/m2 CLR
00:51 25.7 °C 14.5 °C 1015.8 hPa Calm   1.3 km/h 50 % 0.0 mm 0.0 W/m2 CLR
00:56 25.6 °C 14.4 °C 1015.8 hPa Calm     50 % 0.0 mm 0.0 W/m2 CLR
01:01 25.6 °C 14.7 °C 1015.8 hPa West 9.7 km/h 9.7 km/h 51 % 0.0 mm 0.0 W/m2 CLR
01:06 25.5 °C 14.6 °C 1016.1 hPa West 18.5 km/h 18.5 km/h 51 % 0.0 mm 0.0 W/m2 CLR
01:11 25.4 °C 14.5 °C 1016.1 hPa WNW 9.3 km/h 9.3 km/h 51 % 0.0 mm 0.0 W/m2 CLR
01:16 25.3 °C 14.4 °C 1016.1 hPa West 13.0 km/h 13.0 km/h 51 % 0.0 mm 0.0 W/m2 CLR
01:21 25.3 °C 14.4 °C 1016.1 hPa WSW 11.3 km/h 11.3 km/h 51 % 0.0 mm 0.0 W/m2 CLR
01:26 25.2 °C 14.7 °C 1016.1 hPa West 16.1 km/h 16.1 km/h 52 % 0.0 mm 0.0 W/m2 CLR
01:31 25.1 °C 14.5 °C 1016.1 hPa NW 13.0 km/h 13.0 km/h 52 % 0.0 mm 0.0 W/m2 CLR
01:36 24.9 °C 14.7 °C 1016.1 hPa WNW 9.3 km/h 9.3 km/h 53 % 0.0 mm 0.0 W/m2 CLR
01:41 24.8 °C 14.6 °C 1016.1 hPa WNW 11.1 km/h 11.1 km/h 53 % 0.0 mm 0.0 W/m2 CLR
01:46 24.8 °C 14.6 °C 1016.1 hPa WNW 14.8 km/h 14.8 km/h 53 % 0.0 mm 0.0 W/m2 CLR
01:51 24.6 °C 14.7 °C 1016.1 hPa WNW 14.8 km/h 14.8 km/h 54 % 0.0 mm 0.0 W/m2 CLR
01:56 24.5 °C 14.6 °C 1016.1 hPa West 5.6 km/h 5.6 km/h 54 % 0.0 mm 0.0 W/m2 CLR
02:01 24.3 °C 14.7 °C 1016.5 hPa West 14.5 km/h 14.5 km/h 55 % 0.0 mm 0.0 W/m2 CLR
02:06 24.3 °C 14.7 °C 1016.5 hPa West 11.1 km/h 11.1 km/h 55 % 0.0 mm 0.0 W/m2 CLR
02:11 24.1 °C 14.8 °C 1016.5 hPa West 13.0 km/h 13.0 km/h 56 % 0.0 mm 0.0 W/m2 CLR
02:16 24.0 °C 14.7 °C 1016.5 hPa SW 7.4 km/h 7.4 km/h 56 % 0.0 mm 0.0 W/m2 CLR
02:21 23.9 °C 14.6 °C 1016.5 hPa WSW 11.1 km/h 11.1 km/h 56 % 0.0 mm 0.0 W/m2 CLR
02:26 23.8 °C 14.7 °C 1016.5 hPa West 13.0 km/h 13.0 km/h 57 % 0.0 mm 0.0 W/m2 CLR
02:31 23.7 °C 14.7 °C 1016.5 hPa West 9.7 km/h 9.7 km/h 57 % 0.0 mm 0.0 W/m2 CLR
02:36 23.6 °C 14.6 °C 1016.1 hPa WNW 13.0 km/h 13.0 km/h 57 % 0.0 mm 0.0 W/m2 CLR
02:41 23.5 °C 14.5 °C 1016.1 hPa West 14.8 km/h 14.8 km/h 57 % 0.0 mm 0.0 W/m2 CLR
02:46 23.4 °C 14.7 °C 1016.1 hPa West 11.3 km/h 11.3 km/h 58 % 0.0 mm 0.0 W/m2 CLR
02:51 23.3 °C 14.6 °C 1016.5 hPa West 14.8 km/h 14.8 km/h 58 % 0.0 mm 0.0 W/m2 CLR
02:56 23.3 °C 14.6 °C 1016.5 hPa WSW 13.0 km/h 13.0 km/h 58 % 0.0 mm 0.0 W/m2 CLR
03:01 23.2 °C 14.5 °C 1016.5 hPa West 13.0 km/h 13.0 km/h 58 % 0.0 mm 0.0 W/m2 CLR
03:06 23.2 °C 14.5 °C 1016.5 hPa West 14.8 km/h 14.8 km/h 58 % 0.0 mm 0.0 W/m2 CLR
03:11 23.2 °C 14.4 °C 1016.5 hPa WSW 11.1 km/h 11.1 km/h 58 % 0.0 mm 0.0 W/m2 CLR
03:16 23.2 °C 14.4 °C 1016.5 hPa WNW 9.7 km/h 9.7 km/h 58 % 0.0 mm 0.0 W/m2 CLR
03:21 23.1 °C 14.4 °C 1016.5 hPa WSW 9.3 km/h 9.3 km/h 58 % 0.0 mm 0.0 W/m2 CLR
03:26 23.1 °C 14.7 °C 1016.5 hPa WSW 9.3 km/h 9.3 km/h 59 % 0.0 mm 0.0 W/m2 CLR
03:31 23.1 °C 14.6 °C 1016.1 hPa SW 5.6 km/h 5.6 km/h 59 % 0.0 mm 0.0 W/m2 CLR
03:36 23.0 °C 14.6 °C 1016.1 hPa West 11.3 km/h 11.3 km/h 59 % 0.0 mm 0.0 W/m2 CLR
03:41 22.9 °C 14.5 °C 1016.1 hPa WSW 7.4 km/h 7.4 km/h 59 % 0.0 mm 0.0 W/m2 CLR
03:46 22.9 °C 14.4 °C 1016.1 hPa WSW 1.9 km/h 1.9 km/h 59 % 0.0 mm 0.0 W/m2 CLR
03:51 22.8 °C 14.4 °C 1015.8 hPa WSW 11.1 km/h 11.1 km/h 59 % 0.0 mm 0.0 W/m2 CLR
03:56 22.8 °C 14.3 °C 1015.8 hPa Calm     59 % 0.0 mm 0.0 W/m2 CLR
04:01 22.7 °C 14.6 °C 1015.8 hPa SW 7.4 km/h 7.4 km/h 60 % 0.0 mm 0.0 W/m2 CLR
04:06 22.7 °C 14.5 °C 1015.8 hPa WSW 5.6 km/h 5.6 km/h 60 % 0.0 mm 0.0 W/m2 CLR
04:07 22.7 °C 14.5 °C 1015.8 hPa WSW 5.6 km/h 5.6 km/h 60 % 0.0 mm 0.0 W/m2 CLR
04:12 22.6 °C 14.4 °C 1015.5 hPa Calm     60 % 0.0 mm 0.0 W/m2 CLR
04:17 22.6 °C 14.4 °C 1015.5 hPa Calm     60 % 0.0 mm 0.0 W/m2 CLR
04:22 22.6 °C 14.4 °C 1015.8 hPa Calm     60 % 0.0 mm 0.0 W/m2 CLR
04:27 22.5 °C 14.6 °C 1015.8 hPa Calm     61 % 0.0 mm 0.0 W/m2 CLR
04:32 22.5 °C 14.6 °C 1015.5 hPa Calm     61 % 0.0 mm 0.0 W/m2 CLR
04:37 22.5 °C 14.6 °C 1015.5 hPa Calm     61 % 0.0 mm 0.0 W/m2 CLR
04:42 22.5 °C 14.6 °C 1015.5 hPa Calm     61 % 0.0 mm 0.0 W/m2 CLR
04:47 22.5 °C 14.6 °C 1015.5 hPa Calm     61 % 0.0 mm 0.0 W/m2 CLR
04:52 22.5 °C 14.6 °C 1015.8 hPa West 9.3 km/h 9.3 km/h 61 % 0.0 mm 0.0 W/m2 CLR
05:02 22.6 °C 14.7 °C 1015.5 hPa West 7.4 km/h 7.4 km/h 61 % 0.0 mm 0.0 W/m2 CLR
05:07 22.7 °C 14.8 °C 1015.5 hPa West 3.2 km/h 3.2 km/h 61 % 0.0 mm 0.0 W/m2 CLR
05:12 22.6 °C 14.7 °C 1015.1 hPa Calm     61 % 0.0 mm 0.0 W/m2 CLR
05:17 22.6 °C 14.7 °C 1015.1 hPa Calm     61 % 0.0 mm 0.0 W/m2 CLR
05:22 22.6 °C 14.7 °C 1015.1 hPa Calm     61 % 0.0 mm 0.0 W/m2 CLR
05:27 22.6 °C 14.7 °C 1015.1 hPa Calm     61 % 0.0 mm 0.0 W/m2 CLR
05:32 22.6 °C 14.7 °C 1015.5 hPa Calm     61 % 0.0 mm 0.0 W/m2 CLR
05:37 22.6 °C 14.7 °C 1015.5 hPa Calm     61 % 0.0 mm 0.0 W/m2 CLR
05:42 22.5 °C 14.6 °C 1015.5 hPa Calm     61 % 0.0 mm 0.0 W/m2 CLR
05:47 22.5 °C 14.6 °C 1015.5 hPa Calm     61 % 0.0 mm 0.0 W/m2 CLR
05:52 22.4 °C 14.6 °C 1015.5 hPa Calm     61 % 0.0 mm 0.0 W/m2 CLR
05:57 22.3 °C 14.4 °C 1015.5 hPa WNW 6.4 km/h 6.4 km/h 61 % 0.0 mm 0.0 W/m2 CLR
06:02 22.3 °C 14.7 °C 1015.8 hPa Calm     62 % 0.0 mm 0.0 W/m2 CLR
06:07 22.2 °C 14.6 °C 1015.8 hPa WNW 7.4 km/h 7.4 km/h 62 % 0.0 mm 0.0 W/m2 CLR
06:12 22.2 °C 14.6 °C 1015.8 hPa WNW 5.6 km/h 5.6 km/h 62 % 0.0 mm 0.0 W/m2 CLR
06:17 22.2 °C 14.6 °C 1015.8 hPa Calm     62 % 0.0 mm 0.0 W/m2 CLR
06:22 22.1 °C 14.7 °C 1015.8 hPa NW 3.7 km/h 3.7 km/h 63 % 0.0 mm 0.0 W/m2 OVC
06:27 22.1 °C 14.7 °C 1015.8 hPa Calm     63 % 0.0 mm 0.0 W/m2 OVC
06:32 22.1 °C 14.7 °C 1015.8 hPa NW 3.7 km/h   63 % 0.0 mm 0.0 W/m2 OVC
06:37 22.0 °C 14.6 °C 1015.8 hPa Calm     63 % 0.0 mm 0.0 W/m2 OVC
06:42 21.9 °C 14.6 °C 1015.8 hPa Calm     63 % 0.0 mm 5.0 W/m2 OVC
06:47 21.9 °C 14.6 °C 1015.8 hPa Calm     63 % 0.0 mm 5.0 W/m2 OVC
06:52 21.9 °C 14.5 °C 1015.8 hPa Calm     63 % 0.0 mm 9.0 W/m2 BKN
06:57 21.9 °C 14.5 °C 1015.8 hPa Calm     63 % 0.0 mm 14.0 W/m2 BKN
07:02 21.9 °C 14.5 °C 1015.8 hPa Calm     63 % 0.0 mm 21.0 W/m2 BKN
07:07 21.9 °C 14.8 °C 1016.1 hPa Calm     64 % 0.0 mm 30.0 W/m2 BKN
07:13 21.8 °C 14.7 °C 1016.1 hPa Calm     64 % 0.0 mm 32.0 W/m2 BKN
07:18 21.8 °C 14.7 °C 1016.1 hPa Calm     64 % 0.0 mm 35.0 W/m2 BKN
07:23 21.8 °C 14.7 °C 1016.1 hPa West 6.4 km/h 6.4 km/h 64 % 0.0 mm 47.0 W/m2 SCT
07:28 21.8 °C 14.7 °C 1016.1 hPa NW 9.3 km/h 9.3 km/h 64 % 0.0 mm 62.0 W/m2 SCT
07:33 21.8 °C 14.7 °C 1016.1 hPa Calm     64 % 0.0 mm 83.0 W/m2 SCT
07:38 21.9 °C 14.8 °C 1016.1 hPa Calm     64 % 0.0 mm 91.0 W/m2 FEW
07:43 21.9 °C 14.8 °C 1016.5 hPa Calm     64 % 0.0 mm 102.0 W/m2 CLR
07:48 22.1 °C 15.0 °C 1016.5 hPa Calm     64 % 0.0 mm 118.0 W/m2 CLR
07:53 22.2 °C 14.8 °C 1016.5 hPa Calm     63 % 0.0 mm 137.0 W/m2 CLR
07:58 22.4 °C 15.0 °C 1016.5 hPa Calm     63 % 0.0 mm 171.0 W/m2 CLR
08:03 22.5 °C 14.8 °C 1016.5 hPa NW 5.6 km/h   62 % 0.0 mm 185.0 W/m2 CLR
08:08 22.7 °C 15.0 °C 1016.5 hPa Calm   5.5 km/h 62 % 0.0 mm 202.0 W/m2 CLR
08:13 22.6 °C 14.9 °C 1016.5 hPa NW 13.0 km/h 13.0 km/h 62 % 0.0 mm 216.0 W/m2 CLR
08:18 22.6 °C 14.9 °C 1016.5 hPa NW 13.0 km/h 13.0 km/h 62 % 0.0 mm 199.0 W/m2 CLR
08:23 22.7 °C 14.8 °C 1016.8 hPa North 13.0 km/h 13.0 km/h 61 % 0.0 mm 257.0 W/m2 CLR
08:28 22.8 °C 14.9 °C 1016.8 hPa NW 11.1 km/h 11.1 km/h 61 % 0.0 mm 153.0 W/m2 CLR
08:33 22.7 °C 14.8 °C 1016.5 hPa WNW 9.3 km/h 9.3 km/h 61 % 0.0 mm 139.0 W/m2 CLR
08:38 22.7 °C 14.8 °C 1016.8 hPa WNW 6.4 km/h 6.4 km/h 61 % 0.0 mm 190.0 W/m2 CLR
08:43 22.8 °C 14.9 °C 1016.5 hPa NW 5.6 km/h 5.6 km/h 61 % 0.0 mm 306.0 W/m2 CLR
08:48 23.1 °C 14.9 °C 1016.5 hPa West 4.8 km/h 4.8 km/h 60 % 0.0 mm 299.0 W/m2 CLR
08:53 23.1 °C 14.7 °C 1016.5 hPa Calm     59 % 0.0 mm 338.0 W/m2 CLR
08:58 23.2 °C 14.9 °C 1016.5 hPa NW 1.6 km/h 1.6 km/h 60 % 0.0 mm 192.0 W/m2 CLR
09:03 23.4 °C 15.2 °C 1016.8 hPa Calm     60 % 0.0 mm 373.0 W/m2 CLR
09:08 23.7 °C 15.2 °C 1016.5 hPa NNW 7.4 km/h 7.4 km/h 59 % 0.0 mm 359.0 W/m2 CLR
09:13 23.9 °C 15.1 °C 1016.5 hPa NNW 11.3 km/h 11.3 km/h 58 % 0.0 mm 385.0 W/m2 CLR
09:18 24.1 °C 15.0 °C 1016.5 hPa NW 5.6 km/h 5.6 km/h 57 % 0.0 mm 387.0 W/m2 CLR
09:23 24.1 °C 15.1 °C 1016.5 hPa Calm     57 % 0.0 mm 390.0 W/m2 CLR
09:28 24.3 °C 15.2 °C 1016.5 hPa Calm     57 % 0.0 mm 401.0 W/m2 CLR
09:33 24.4 °C 15.1 °C 1016.5 hPa NW 1.9 km/h 1.9 km/h 56 % 0.0 mm 417.0 W/m2 CLR
09:38 24.7 °C 15.3 °C 1016.5 hPa Calm     56 % 0.0 mm 436.0 W/m2 CLR
09:43 24.9 °C 15.2 °C 1016.5 hPa NW 11.1 km/h 11.1 km/h 55 % 0.0 mm 462.0 W/m2 CLR
09:48 25.1 °C 15.2 °C 1016.5 hPa NW 1.9 km/h   54 % 0.0 mm 519.0 W/m2 CLR
09:53 25.4 °C 15.4 °C 1016.5 hPa Calm   0.2 km/h 54 % 0.0 mm 613.0 W/m2 CLR
09:58 25.7 °C 15.4 °C 1016.1 hPa Calm     53 % 0.0 mm 345.0 W/m2 CLR
10:03 25.9 °C 15.3 °C 1016.1 hPa Calm     52 % 0.0 mm 250.0 W/m2 CLR
10:08 25.8 °C 15.2 °C 1016.1 hPa Calm     52 % 0.0 mm 239.0 W/m2 CLR
10:13 25.7 °C 15.1 °C 1016.1 hPa Calm     52 % 0.0 mm 297.0 W/m2 CLR
10:14 25.7 °C 15.1 °C 1016.1 hPa Calm     52 % 0.0 mm 230.0 W/m2 CLR
10:19 25.6 °C 15.0 °C 1016.1 hPa Calm     52 % 0.0 mm 169.0 W/m2 CLR
10:24 25.6 °C 15.3 °C 1016.1 hPa Calm     53 % 0.0 mm 232.0 W/m2 CLR
10:29 25.5 °C 15.2 °C 1016.1 hPa Calm     53 % 0.0 mm 260.0 W/m2 CLR
10:34 25.4 °C 15.2 °C 1015.8 hPa Calm     53 % 0.0 mm 227.0 W/m2 CLR
10:40 25.6 °C 15.3 °C 1015.8 hPa Calm     53 % 0.0 mm 274.0 W/m2 CLR
10:45 25.8 °C 15.2 °C 1015.8 hPa Calm     52 % 0.0 mm 489.0 W/m2 CLR
10:50 26.3 °C 15.3 °C 1015.5 hPa Calm     51 % 0.0 mm 478.0 W/m2 CLR
10:55 26.3 °C 15.1 °C 1015.5 hPa East 1.9 km/h   50 % 0.0 mm 308.0 W/m2 CLR
11:00 26.0 °C 15.1 °C 1015.5 hPa Calm     51 % 0.0 mm 334.0 W/m2 CLR
11:05 26.2 °C 15.3 °C 1015.8 hPa Calm     51 % 0.0 mm 687.0 W/m2 CLR
11:10 26.6 °C 15.3 °C 1015.8 hPa Calm     50 % 0.0 mm 677.0 W/m2 CLR
11:15 26.9 °C 15.6 °C 1015.8 hPa Calm     50 % 0.0 mm 698.0 W/m2 CLR
11:20 27.3 °C 15.7 °C 1015.8 hPa Calm     49 % 0.0 mm 710.0 W/m2 CLR
11:25 27.8 °C 15.5 °C 1015.8 hPa Calm     47 % 0.0 mm 724.0 W/m2 CLR
11:30 28.1 °C 15.7 °C 1015.8 hPa ENE 1.9 km/h   47 % 0.0 mm 742.0 W/m2 CLR
11:35 28.2 °C 15.4 °C 1015.8 hPa NNW 1.9 km/h   46 % 0.0 mm 770.0 W/m2 CLR
11:40 28.3 °C 15.6 °C 1015.8 hPa ENE 1.9 km/h 1.9 km/h 46 % 0.0 mm 819.0 W/m2 CLR
11:45 28.4 °C 15.7 °C 1015.8 hPa Calm     46 % 0.0 mm 888.0 W/m2 CLR
11:50 28.6 °C 15.8 °C 1015.5 hPa Calm   0.2 km/h 46 % 0.0 mm 438.0 W/m2 CLR
11:55 28.6 °C 15.8 °C 1015.5 hPa East 1.6 km/h 1.6 km/h 46 % 0.0 mm 445.0 W/m2 CLR
12:00 28.3 °C 15.6 °C 1015.5 hPa ESE 1.9 km/h 1.9 km/h 46 % 0.0 mm 454.0 W/m2 CLR
12:05 28.2 °C 15.8 °C 1015.5 hPa Calm     47 % 0.0 mm 357.0 W/m2 CLR
12:10 28.2 °C 15.8 °C 1015.5 hPa NE 3.2 km/h 3.2 km/h 47 % 0.0 mm 411.0 W/m2 CLR
12:15 28.5 °C 16.1 °C 1015.5 hPa Calm     47 % 0.0 mm 411.0 W/m2 CLR
12:20 28.8 °C 16.1 °C 1015.5 hPa NNE 5.6 km/h 5.6 km/h 46 % 0.0 mm 413.0 W/m2 CLR
12:25 28.9 °C 16.1 °C 1015.8 hPa NW 3.2 km/h 3.2 km/h 46 % 0.0 mm 756.0 W/m2 CLR
12:30 29.1 °C 15.9 °C 1015.8 hPa Calm     45 % 0.0 mm 441.0 W/m2 CLR
12:35 29.2 °C 16.1 °C 1015.5 hPa Calm     45 % 0.0 mm 316.0 W/m2 CLR
12:40 29.2 °C 16.1 °C 1015.5 hPa Calm     45 % 0.0 mm 230.0 W/m2 CLR
12:45 29.0 °C 15.9 °C 1015.1 hPa ENE 16.7 km/h 16.7 km/h 45 % 0.0 mm 297.0 W/m2 CLR
12:50 28.8 °C 16.1 °C 1015.1 hPa North 1.9 km/h 1.9 km/h 46 % 0.0 mm 378.0 W/m2 CLR
12:55 28.9 °C 16.2 °C 1015.1 hPa NE 5.6 km/h 5.6 km/h 46 % 0.0 mm 480.0 W/m2 CLR
13:00 29.0 °C 16.2 °C 1015.1 hPa ENE 3.2 km/h 3.2 km/h 46 % 0.0 mm 418.0 W/m2 CLR
13:05 29.0 °C 16.2 °C 1014.8 hPa Calm     46 % 0.0 mm 385.0 W/m2 CLR
13:10 29.1 °C 16.3 °C 1014.8 hPa ESE 8.0 km/h 8.0 km/h 46 % 0.0 mm 476.0 W/m2 CLR
13:15 29.3 °C 16.5 °C 1014.8 hPa ESE 11.3 km/h 11.3 km/h 46 % 0.0 mm 519.0 W/m2 CLR
13:18 29.4 °C 16.6 °C 1014.8 hPa East 13.0 km/h 13.0 km/h 46 % 0.0 mm 519.0 W/m2 CLR
13:23 29.3 °C 16.5 °C 1014.8 hPa ENE 5.6 km/h 5.6 km/h 46 % 0.0 mm 362.0 W/m2 CLR
13:28 29.5 °C 16.7 °C 1014.8 hPa SE 5.6 km/h   46 % 0.0 mm 401.0 W/m2 CLR
13:33 29.7 °C 16.8 °C 1014.8 hPa Calm     46 % 0.0 mm 728.0 W/m2 CLR
13:38 29.9 °C 17.0 °C 1014.4 hPa NE 9.3 km/h 9.3 km/h 46 % 0.0 mm 450.0 W/m2 CLR
13:43 30.0 °C 17.4 °C 1014.4 hPa East 11.1 km/h 11.1 km/h 47 % 0.0 mm 330.0 W/m2 CLR
13:48 30.0 °C 17.4 °C 1014.1 hPa ENE 9.3 km/h 9.3 km/h 47 % 0.0 mm 388.0 W/m2 CLR
13:53 30.2 °C 17.9 °C 1014.1 hPa ENE 11.1 km/h 11.1 km/h 48 % 0.0 mm 431.0 W/m2 CLR
13:58 30.7 °C 17.8 °C 1014.1 hPa East 18.5 km/h 18.5 km/h 46 % 0.0 mm 981.0 W/m2 CLR
14:03 30.8 °C 17.9 °C 1014.1 hPa ENE 16.1 km/h 16.1 km/h 46 % 0.0 mm 965.0 W/m2 CLR
14:08 31.1 °C 18.1 °C 1014.1 hPa East 20.4 km/h 20.4 km/h 46 % 0.0 mm 904.0 W/m2 CLR
14:13 31.2 °C 18.2 °C 1014.1 hPa ENE 20.4 km/h 20.4 km/h 46 % 0.0 mm 951.0 W/m2 CLR
14:18 31.6 °C 18.9 °C 1013.8 hPa NE 14.8 km/h 14.8 km/h 47 % 0.0 mm 882.0 W/m2 CLR
14:23 32.0 °C 18.6 °C 1013.8 hPa East 13.0 km/h 13.0 km/h 45 % 0.0 mm 949.0 W/m2 CLR
14:28 31.9 °C 17.8 °C 1013.4 hPa SE 18.5 km/h 18.5 km/h 43 % 0.0 mm 888.0 W/m2 CLR
14:33 32.4 °C 18.2 °C 1013.4 hPa ESE 20.4 km/h 20.4 km/h 43 % 0.0 mm 846.0 W/m2 CLR
14:38 32.5 °C 18.7 °C 1013.1 hPa ESE 18.5 km/h 18.5 km/h 44 % 0.0 mm 601.0 W/m2 CLR
14:43 32.2 °C 18.4 °C 1013.1 hPa East 18.5 km/h 18.5 km/h 44 % 0.0 mm 819.0 W/m2 CLR
14:48 32.3 °C 18.4 °C 1013.1 hPa East 22.2 km/h 22.2 km/h 44 % 0.0 mm 872.0 W/m2 CLR
14:53 32.3 °C 18.8 °C 1013.1 hPa East 18.5 km/h 18.5 km/h 45 % 0.0 mm 788.0 W/m2 CLR
14:58 32.0 °C 17.8 °C 1012.8 hPa East 20.4 km/h 20.4 km/h 43 % 0.0 mm 422.0 W/m2 CLR
15:03 31.8 °C 18.4 °C 1012.8 hPa ESE 22.2 km/h 22.2 km/h 45 % 0.0 mm 359.0 W/m2 CLR
15:08 31.7 °C 18.3 °C 1013.1 hPa ESE 24.1 km/h 24.1 km/h 45 % 0.0 mm 327.0 W/m2 CLR
15:13 31.5 °C 18.5 °C 1012.8 hPa East 18.5 km/h 18.5 km/h 46 % 0.0 mm 330.0 W/m2 CLR
15:18 31.5 °C 19.2 °C 1012.8 hPa ESE 16.7 km/h 16.7 km/h 48 % 0.0 mm 336.0 W/m2 CLR
15:23 31.5 °C 19.5 °C 1012.8 hPa ESE 12.9 km/h 12.9 km/h 49 % 0.0 mm 278.0 W/m2 CLR
15:28 31.3 °C 18.9 °C 1012.8 hPa ESE 13.0 km/h 13.0 km/h 48 % 0.0 mm 234.0 W/m2 CLR
15:29 31.3 °C 19.3 °C 1012.8 hPa East 14.5 km/h 14.5 km/h 49 % 0.0 mm 234.0 W/m2 CLR
15:34 31.0 °C 19.1 °C 1012.8 hPa East 13.0 km/h 13.0 km/h 49 % 0.0 mm 269.0 W/m2 CLR
15:39 30.8 °C 19.5 °C 1012.8 hPa ESE 20.4 km/h 20.4 km/h 51 % 0.0 mm 334.0 W/m2 CLR
15:44 30.6 °C 19.6 °C 1012.8 hPa ESE 14.8 km/h 14.8 km/h 52 % 0.0 mm 427.0 W/m2 CLR
15:49 30.7 °C 20.0 °C 1012.8 hPa ESE 14.8 km/h 14.8 km/h 53 % 0.0 mm 468.0 W/m2 CLR
15:54 30.6 °C 20.2 °C 1012.8 hPa East 18.5 km/h 18.5 km/h 54 % 0.0 mm 417.0 W/m2 CLR
15:59 30.8 °C 20.1 °C 1012.4 hPa East 14.8 km/h 14.8 km/h 53 % 0.0 mm 501.0 W/m2 CLR
16:04 30.7 °C 20.1 °C 1012.4 hPa ESE 13.0 km/h 13.0 km/h 53 % 0.0 mm 413.0 W/m2 CLR
16:09 31.0 °C 20.3 °C 1012.1 hPa ENE 14.8 km/h 14.8 km/h 53 % 0.0 mm 659.0 W/m2 CLR
16:14 31.0 °C 20.0 °C 1012.1 hPa East 18.5 km/h 18.5 km/h 52 % 0.0 mm 369.0 W/m2 CLR
16:19 31.0 °C 20.0 °C 1011.7 hPa East 22.2 km/h 22.2 km/h 52 % 0.0 mm 332.0 W/m2 CLR
16:24 31.1 °C 19.8 °C 1011.7 hPa SE 20.4 km/h 20.4 km/h 51 % 0.0 mm 323.0 W/m2 CLR
16:29 31.5 °C 19.5 °C 1011.7 hPa SE 12.9 km/h 17.1 km/h 49 % 0.0 mm 830.0 W/m2 CLR
16:34 31.8 °C 19.4 °C 1011.4 hPa SE 22.2 km/h 22.2 km/h 48 % 0.0 mm 253.0 W/m2 CLR
16:39 31.7 °C 19.4 °C 1011.4 hPa ESE 18.5 km/h 18.5 km/h 48 % 0.0 mm 243.0 W/m2 CLR
16:44 32.1 °C 19.0 °C 1011.4 hPa ESE 24.1 km/h 24.1 km/h 46 % 0.0 mm 744.0 W/m2 CLR
16:49 31.9 °C 18.9 °C 1011.1 hPa SSE 18.5 km/h 18.5 km/h 46 % 0.0 mm 302.0 W/m2 CLR
16:54 31.7 °C 18.7 °C 1011.4 hPa SE 29.6 km/h 29.6 km/h 46 % 0.0 mm 171.0 W/m2 CLR
16:59 31.4 °C 19.1 °C 1011.4 hPa SE 24.1 km/h 24.1 km/h 48 % 0.0 mm 127.0 W/m2 CLR
17:04 31.4 °C 18.7 °C 1011.4 hPa SE 18.5 km/h 18.5 km/h 47 % 0.0 mm 98.0 W/m2 CLR
17:09 31.2 °C 18.8 °C 1011.4 hPa SE 18.5 km/h 18.5 km/h 48 % 0.0 mm 86.0 W/m2 CLR
17:14 30.9 °C 18.6 °C 1011.1 hPa SSE 22.2 km/h 22.2 km/h 48 % 0.0 mm 88.0 W/m2 CLR
17:19 30.7 °C 18.4 °C 1011.1 hPa SSE 25.9 km/h 25.9 km/h 48 % 0.0 mm 81.0 W/m2 CLR
17:24 30.8 °C 18.6 °C 1011.4 hPa SSE 24.1 km/h 24.1 km/h 48 % 0.0 mm 54.0 W/m2 FEW
17:29 30.8 °C 18.5 °C 1011.7 hPa ESE 19.3 km/h 19.3 km/h 48 % 0.0 mm 42.0 W/m2 SCT
17:34 30.6 °C 18.3 °C 1011.4 hPa SE 13.0 km/h 13.0 km/h 48 % 0.0 mm 49.0 W/m2 SCT
17:39 30.4 °C 18.2 °C 1011.7 hPa SE 14.8 km/h 14.8 km/h 48 % 0.0 mm 42.0 W/m2 SCT
17:44 30.2 °C 18.3 °C 1012.1 hPa South 11.1 km/h 11.1 km/h 49 % 0.0 mm 44.0 W/m2 SCT
17:49 30.1 °C 18.2 °C 1012.1 hPa South 14.8 km/h 14.8 km/h 49 % 0.0 mm 47.0 W/m2 BKN
17:54 29.8 °C 18.3 °C 1012.1 hPa SSE 5.6 km/h   50 % 0.0 mm 67.0 W/m2 SCT
17:59 29.7 °C 18.8 °C 1012.1 hPa Calm     52 % 0.0 mm 95.0 W/m2 SCT
18:04 29.4 °C 18.9 °C 1012.1 hPa Calm     53 % 0.0 mm 123.0 W/m2 CLR
18:09 28.7 °C 19.3 °C 1012.4 hPa NNW 33.3 km/h 33.3 km/h 57 % 0.0 mm 128.0 W/m2 CLR
18:14 27.2 °C 19.3 °C 1012.4 hPa North 37.0 km/h 37.0 km/h 62 % 0.0 mm 127.0 W/m2 CLR
18:16 27.1 °C 19.2 °C 1012.4 hPa NNE 20.9 km/h 20.9 km/h 62 % 0.0 mm 127.0 W/m2 CLR
18:21 26.8 °C 19.4 °C 1012.1 hPa NNE 27.8 km/h 27.8 km/h 64 % 0.0 mm 132.0 W/m2 CLR
18:26 26.9 °C 19.5 °C 1012.1 hPa ENE 5.6 km/h 5.6 km/h 64 % 0.0 mm 163.0 W/m2 CLR
18:31 27.1 °C 19.4 °C 1012.1 hPa ENE 1.9 km/h   63 % 0.0 mm 206.0 W/m2 CLR
18:36 27.4 °C 19.4 °C 1012.1 hPa Calm     62 % 0.0 mm 204.0 W/m2 CLR
18:41 27.9 °C 19.2 °C 1012.1 hPa ESE 14.5 km/h 14.5 km/h 59 % 0.0 mm 265.0 W/m2 CLR
18:46 28.3 °C 18.9 °C 1012.1 hPa ESE 16.7 km/h 16.7 km/h 57 % 0.0 mm 195.0 W/m2 CLR
18:51 28.4 °C 19.1 °C 1011.7 hPa ESE 16.7 km/h 16.7 km/h 57 % 0.0 mm 255.0 W/m2 CLR
18:56 28.4 °C 18.8 °C 1011.7 hPa ESE 20.4 km/h 20.4 km/h 56 % 0.0 mm 394.0 W/m2 CLR
19:01 28.4 °C 18.8 °C 1011.4 hPa ESE 16.7 km/h 16.7 km/h 56 % 0.0 mm 174.0 W/m2 CLR
19:06 28.6 °C 18.7 °C 1011.4 hPa ESE 20.4 km/h 20.4 km/h 55 % 0.0 mm 376.0 W/m2 CLR
19:11 28.8 °C 18.9 °C 1011.4 hPa ESE 13.0 km/h 13.0 km/h 55 % 0.0 mm 366.0 W/m2 CLR
19:16 29.0 °C 18.4 °C 1011.1 hPa ESE 20.9 km/h 20.9 km/h 53 % 0.0 mm 345.0 W/m2 CLR
19:21 28.8 °C 18.3 °C 1011.1 hPa ESE 17.7 km/h 17.7 km/h 53 % 0.0 mm 278.0 W/m2 CLR
19:26 28.6 °C 18.3 °C 1010.7 hPa ESE 18.5 km/h 18.5 km/h 54 % 0.0 mm 62.0 W/m2 CLR
19:31 28.5 °C 18.6 °C 1010.7 hPa SE 20.9 km/h 20.9 km/h 55 % 0.0 mm 70.0 W/m2 FEW
19:36 28.3 °C 18.4 °C 1010.7 hPa SE 16.7 km/h 16.7 km/h 55 % 0.0 mm 95.0 W/m2 FEW
19:41 28.2 °C 18.3 °C 1010.4 hPa SE 17.7 km/h 17.7 km/h 55 % 0.0 mm 63.0 W/m2 FEW
19:46 28.0 °C 18.4 °C 1010.4 hPa ESE 14.8 km/h 14.8 km/h 56 % 0.0 mm 54.0 W/m2 FEW
19:51 27.9 °C 18.6 °C 1010.7 hPa SE 9.3 km/h 9.3 km/h 57 % 0.0 mm 58.0 W/m2 SCT
19:56 27.9 °C 18.6 °C 1010.4 hPa SSE 9.7 km/h 9.7 km/h 57 % 0.0 mm 60.0 W/m2 SCT
20:01 27.9 °C 18.3 °C 1010.4 hPa SE 18.5 km/h 18.5 km/h 56 % 0.0 mm 60.0 W/m2 SCT
20:06 27.9 °C 18.3 °C 1010.4 hPa SE 18.5 km/h 18.5 km/h 56 % 0.0 mm 62.0 W/m2 SCT
20:11 27.9 °C 18.3 °C 1010.4 hPa SE 14.8 km/h 14.8 km/h 56 % 0.0 mm 58.0 W/m2 SCT
20:16 27.8 °C 17.9 °C 1010.4 hPa ESE 14.8 km/h 14.8 km/h 55 % 0.0 mm 53.0 W/m2 SCT
20:21 27.7 °C 18.1 °C 1010.4 hPa SE 18.5 km/h 18.5 km/h 56 % 0.0 mm 53.0 W/m2 SCT
20:26 27.6 °C 18.1 °C 1010.7 hPa SE 5.6 km/h 5.6 km/h 56 % 0.0 mm 51.0 W/m2 SCT
20:31 27.6 °C 18.0 °C 1010.7 hPa SE 16.7 km/h 16.7 km/h 56 % 0.0 mm 40.0 W/m2 SCT
20:36 27.4 °C 18.2 °C 1010.7 hPa SE 11.1 km/h 11.1 km/h 57 % 0.0 mm 30.0 W/m2 BKN
20:41 27.4 °C 18.1 °C 1010.7 hPa SSE 9.3 km/h 9.3 km/h 57 % 0.0 mm 26.0 W/m2 BKN
20:42 27.4 °C 18.1 °C 1011.1 hPa SE 8.0 km/h 8.0 km/h 57 % 0.0 mm 25.0 W/m2 BKN
20:47 27.4 °C 18.1 °C 1011.1 hPa SSE 11.1 km/h 11.1 km/h 57 % 0.0 mm 21.0 W/m2 BKN
20:52 27.3 °C 18.1 °C 1011.1 hPa SSE 14.8 km/h 14.8 km/h 57 % 0.0 mm 18.0 W/m2 BKN
20:57 27.2 °C 17.9 °C 1011.1 hPa SE 13.0 km/h 13.0 km/h 57 % 0.0 mm 16.0 W/m2 BKN
21:02 27.2 °C 18.2 °C 1011.1 hPa SE 13.0 km/h 13.0 km/h 58 % 0.0 mm 14.0 W/m2 BKN
21:07 27.1 °C 18.1 °C 1010.7 hPa ESE 11.1 km/h 11.1 km/h 58 % 0.0 mm 12.0 W/m2 BKN
21:12 26.9 °C 18.3 °C 1011.1 hPa SE 7.4 km/h 7.4 km/h 59 % 0.0 mm 9.0 W/m2 BKN
21:17 26.9 °C 18.2 °C 1011.1 hPa ESE 6.4 km/h 6.4 km/h 59 % 0.0 mm 7.0 W/m2 BKN
21:22 26.8 °C 18.1 °C 1010.7 hPa ESE 8.0 km/h 8.0 km/h 59 % 0.0 mm 5.0 W/m2 OVC
21:27 26.7 °C 18.0 °C 1010.7 hPa ESE 9.3 km/h 9.3 km/h 59 % 0.0 mm 0.0 W/m2 OVC
21:32 26.5 °C 18.1 °C 1010.7 hPa ESE 8.0 km/h 8.0 km/h 60 % 0.0 mm 0.0 W/m2 OVC
21:37 26.4 °C 17.8 °C 1010.7 hPa Calm     59 % 0.0 mm 0.0 W/m2 OVC
21:42 26.3 °C 17.7 °C 1010.7 hPa East 6.4 km/h 6.4 km/h 59 % 0.0 mm 0.0 W/m2 OVC
21:47 26.3 °C 17.6 °C 1010.7 hPa Calm     59 % 0.0 mm 0.0 W/m2 CLR
21:52 26.2 °C 17.5 °C 1011.1 hPa Calm     59 % 0.0 mm 0.0 W/m2 CLR
21:57 26.1 °C 17.2 °C 1011.1 hPa ESE 5.6 km/h 5.6 km/h 58 % 0.0 mm 0.0 W/m2 CLR
22:02 26.1 °C 16.9 °C 1011.1 hPa ESE 8.0 km/h 8.0 km/h 57 % 0.0 mm 0.0 W/m2 CLR
22:07 26.1 °C 16.7 °C 1011.1 hPa East 9.3 km/h 9.3 km/h 56 % 0.0 mm 0.0 W/m2 CLR
22:13 26.1 °C 16.7 °C 1011.1 hPa ESE 7.4 km/h 7.4 km/h 56 % 0.0 mm 0.0 W/m2 CLR
22:17 26.0 °C 16.8 °C 1011.4 hPa East 13.0 km/h 13.0 km/h 57 % 0.0 mm 0.0 W/m2 CLR
22:23 25.8 °C 16.9 °C 1011.4 hPa ENE 6.4 km/h 6.4 km/h 58 % 0.0 mm 0.0 W/m2 CLR
22:28 25.7 °C 16.8 °C 1011.7 hPa Calm   0.5 km/h 58 % 0.0 mm 0.0 W/m2 CLR
22:33 25.6 °C 16.4 °C 1012.1 hPa Calm     57 % 0.0 mm 0.0 W/m2 CLR
22:38 25.6 °C 16.2 °C 1012.8 hPa Calm     56 % 0.0 mm 0.0 W/m2 CLR
22:43 25.6 °C 16.1 °C 1012.8 hPa Calm     56 % 0.0 mm 0.0 W/m2 CLR
22:48 25.6 °C 16.7 °C 1012.4 hPa East 5.6 km/h 5.6 km/h 58 % 0.0 mm 0.0 W/m2 CLR
22:53 25.4 °C 16.8 °C 1012.4 hPa SE 5.6 km/h 5.6 km/h 59 % 0.0 mm 0.0 W/m2 CLR
22:58 25.2 °C 17.2 °C 1012.4 hPa SE 5.6 km/h 5.6 km/h 61 % 0.0 mm 0.0 W/m2 CLR
23:03 25.2 °C 16.1 °C 1012.8 hPa SE 18.5 km/h 18.5 km/h 57 % 0.0 mm 0.0 W/m2 CLR
23:08 25.2 °C 16.1 °C 1012.8 hPa SE 14.8 km/h 14.8 km/h 57 % 0.0 mm 0.0 W/m2 CLR
23:13 25.1 °C 16.3 °C 1012.8 hPa SE 14.8 km/h 14.8 km/h 58 % 0.0 mm 0.0 W/m2 CLR
23:18 25.0 °C 16.2 °C 1012.4 hPa SE 11.1 km/h 11.1 km/h 58 % 0.0 mm 0.0 W/m2 CLR
23:23 24.9 °C 16.1 °C 1012.4 hPa SE 11.1 km/h 11.1 km/h 58 % 0.0 mm 0.0 W/m2 CLR
23:28 24.8 °C 15.7 °C 1012.4 hPa SE 11.3 km/h 11.3 km/h 57 % 0.0 mm 0.0 W/m2 CLR
23:33 24.8 °C 15.7 °C 1012.4 hPa SE 7.4 km/h 7.4 km/h 57 % 0.0 mm 0.0 W/m2 CLR
23:38 24.7 °C 15.6 °C 1012.1 hPa ESE 6.4 km/h 6.4 km/h 57 % 0.0 mm 0.0 W/m2 CLR
23:43 24.6 °C 15.5 °C 1012.1 hPa East 1.9 km/h   57 % 0.0 mm 0.0 W/m2 CLR
23:48 24.6 °C 15.5 °C 1012.1 hPa Calm     57 % 0.0 mm 0.0 W/m2 CLR
23:53 24.4 °C 15.7 °C 1012.1 hPa Calm     58 % 0.0 mm 0.0 W/m2 CLR
23:58 24.4 °C 15.3 °C 1012.4 hPa Calm     57 % 0.0 mm 0.0 W/m2 CLR
Lo Temps de Massalio
Compliments of Weather Underground - 1.25 mb